sensor_id;sensor_type;location;lat;lon;timestamp;P1;durP1;ratioP1;P2;durP2;ratioP2
39156;SDS011;24889;42.424;25.604;2022-11-20T00:00:49;18.38;;;6.90;;
39156;SDS011;24889;42.424;25.604;2022-11-20T00:03:14;13.67;;;7.10;;
39156;SDS011;24889;42.424;25.604;2022-11-20T00:05:40;23.90;;;6.83;;
39156;SDS011;24889;42.424;25.604;2022-11-20T00:08:05;31.20;;;6.97;;
39156;SDS011;24889;42.424;25.604;2022-11-20T00:10:30;17.03;;;6.53;;
39156;SDS011;24889;42.424;25.604;2022-11-20T00:12:57;22.33;;;9.03;;
39156;SDS011;24889;42.424;25.604;2022-11-20T00:15:22;19.50;;;8.02;;
39156;SDS011;24889;42.424;25.604;2022-11-20T00:17:48;16.13;;;6.00;;
39156;SDS011;24889;42.424;25.604;2022-11-20T00:20:13;14.07;;;7.03;;
39156;SDS011;24889;42.424;25.604;2022-11-20T00:22:38;20.97;;;6.90;;
39156;SDS011;24889;42.424;25.604;2022-11-20T00:25:04;17.87;;;6.03;;
39156;SDS011;24889;42.424;25.604;2022-11-20T00:27:29;15.70;;;6.20;;
39156;SDS011;24889;42.424;25.604;2022-11-20T00:29:54;16.93;;;6.20;;
39156;SDS011;24889;42.424;25.604;2022-11-20T00:32:20;15.70;;;6.15;;
39156;SDS011;24889;42.424;25.604;2022-11-20T00:34:45;23.17;;;6.30;;
39156;SDS011;24889;42.424;25.604;2022-11-20T00:37:11;19.93;;;6.73;;
39156;SDS011;24889;42.424;25.604;2022-11-20T00:39:36;14.70;;;5.20;;
39156;SDS011;24889;42.424;25.604;2022-11-20T00:42:01;17.60;;;5.20;;
39156;SDS011;24889;42.424;25.604;2022-11-20T00:44:27;16.73;;;5.30;;
39156;SDS011;24889;42.424;25.604;2022-11-20T00:46:52;21.27;;;6.80;;
39156;SDS011;24889;42.424;25.604;2022-11-20T00:49:17;13.53;;;5.23;;
39156;SDS011;24889;42.424;25.604;2022-11-20T00:51:42;17.50;;;5.40;;
39156;SDS011;24889;42.424;25.604;2022-11-20T00:54:08;11.37;;;4.43;;
39156;SDS011;24889;42.424;25.604;2022-11-20T00:56:33;15.10;;;5.07;;
39156;SDS011;24889;42.424;25.604;2022-11-20T00:58:59;17.77;;;4.80;;
39156;SDS011;24889;42.424;25.604;2022-11-20T01:01:25;15.40;;;5.72;;
39156;SDS011;24889;42.424;25.604;2022-11-20T01:03:51;17.67;;;5.15;;
39156;SDS011;24889;42.424;25.604;2022-11-20T01:06:18;15.50;;;5.65;;
39156;SDS011;24889;42.424;25.604;2022-11-20T01:08:44;11.07;;;5.00;;
39156;SDS011;24889;42.424;25.604;2022-11-20T01:11:11;11.57;;;6.50;;
39156;SDS011;24889;42.424;25.604;2022-11-20T01:13:37;15.27;;;5.07;;
39156;SDS011;24889;42.424;25.604;2022-11-20T01:16:10;13.10;;;5.93;;
39156;SDS011;24889;42.424;25.604;2022-11-20T01:18:36;14.40;;;5.03;;
39156;SDS011;24889;42.424;25.604;2022-11-20T01:21:02;14.85;;;5.45;;
39156;SDS011;24889;42.424;25.604;2022-11-20T01:25:53;14.60;;;5.40;;
39156;SDS011;24889;42.424;25.604;2022-11-20T01:28:18;24.77;;;5.13;;
39156;SDS011;24889;42.424;25.604;2022-11-20T01:30:43;17.37;;;5.30;;
39156;SDS011;24889;42.424;25.604;2022-11-20T01:33:08;10.90;;;4.57;;
39156;SDS011;24889;42.424;25.604;2022-11-20T01:35:34;15.67;;;5.77;;
39156;SDS011;24889;42.424;25.604;2022-11-20T01:37:59;14.23;;;4.90;;
39156;SDS011;24889;42.424;25.604;2022-11-20T01:40:24;10.40;;;5.50;;
39156;SDS011;24889;42.424;25.604;2022-11-20T01:42:55;10.43;;;5.23;;
39156;SDS011;24889;42.424;25.604;2022-11-20T01:48:08;12.07;;;5.37;;
39156;SDS011;24889;42.424;25.604;2022-11-20T01:50:34;23.17;;;7.40;;
39156;SDS011;24889;42.424;25.604;2022-11-20T01:53:00;20.03;;;6.00;;
39156;SDS011;24889;42.424;25.604;2022-11-20T01:55:31;16.17;;;5.15;;
39156;SDS011;24889;42.424;25.604;2022-11-20T01:57:56;18.77;;;6.47;;
39156;SDS011;24889;42.424;25.604;2022-11-20T02:00:22;20.00;;;4.72;;
39156;SDS011;24889;42.424;25.604;2022-11-20T02:02:49;15.03;;;4.97;;
39156;SDS011;24889;42.424;25.604;2022-11-20T02:07:47;14.65;;;4.22;;
39156;SDS011;24889;42.424;25.604;2022-11-20T02:10:13;15.80;;;4.93;;
39156;SDS011;24889;42.424;25.604;2022-11-20T02:12:38;21.73;;;4.67;;
39156;SDS011;24889;42.424;25.604;2022-11-20T02:15:22;19.35;;;4.80;;
39156;SDS011;24889;42.424;25.604;2022-11-20T02:17:48;12.90;;;4.27;;
39156;SDS011;24889;42.424;25.604;2022-11-20T02:20:13;16.30;;;4.10;;
39156;SDS011;24889;42.424;25.604;2022-11-20T02:22:42;21.03;;;4.90;;
39156;SDS011;24889;42.424;25.604;2022-11-20T02:25:12;14.27;;;3.90;;
39156;SDS011;24889;42.424;25.604;2022-11-20T02:27:37;15.87;;;4.37;;
39156;SDS011;24889;42.424;25.604;2022-11-20T02:30:04;13.13;;;3.80;;
39156;SDS011;24889;42.424;25.604;2022-11-20T02:34:55;12.48;;;4.00;;
39156;SDS011;24889;42.424;25.604;2022-11-20T02:37:20;16.33;;;4.15;;
39156;SDS011;24889;42.424;25.604;2022-11-20T02:39:46;19.88;;;4.75;;
39156;SDS011;24889;42.424;25.604;2022-11-20T02:42:12;13.82;;;4.50;;
39156;SDS011;24889;42.424;25.604;2022-11-20T02:44:38;18.40;;;5.37;;
39156;SDS011;24889;42.424;25.604;2022-11-20T02:47:03;15.33;;;4.60;;
39156;SDS011;24889;42.424;25.604;2022-11-20T02:49:28;13.13;;;4.40;;
39156;SDS011;24889;42.424;25.604;2022-11-20T02:51:54;23.10;;;7.07;;
39156;SDS011;24889;42.424;25.604;2022-11-20T02:54:19;30.47;;;9.57;;
39156;SDS011;24889;42.424;25.604;2022-11-20T02:56:44;17.63;;;5.63;;
39156;SDS011;24889;42.424;25.604;2022-11-20T02:59:09;15.83;;;4.73;;
39156;SDS011;24889;42.424;25.604;2022-11-20T03:01:35;18.80;;;5.13;;
39156;SDS011;24889;42.424;25.604;2022-11-20T03:04:00;13.33;;;5.10;;
39156;SDS011;24889;42.424;25.604;2022-11-20T03:06:26;13.77;;;4.67;;
39156;SDS011;24889;42.424;25.604;2022-11-20T03:08:51;15.70;;;5.87;;
39156;SDS011;24889;42.424;25.604;2022-11-20T03:11:16;16.53;;;5.40;;
39156;SDS011;24889;42.424;25.604;2022-11-20T03:13:42;22.07;;;5.10;;
39156;SDS011;24889;42.424;25.604;2022-11-20T03:16:11;15.07;;;5.87;;
39156;SDS011;24889;42.424;25.604;2022-11-20T03:18:37;18.83;;;5.93;;
39156;SDS011;24889;42.424;25.604;2022-11-20T03:21:02;15.65;;;5.80;;
39156;SDS011;24889;42.424;25.604;2022-11-20T03:23:29;19.23;;;5.43;;
39156;SDS011;24889;42.424;25.604;2022-11-20T03:25:54;22.35;;;5.35;;
39156;SDS011;24889;42.424;25.604;2022-11-20T03:28:20;12.00;;;5.00;;
39156;SDS011;24889;42.424;25.604;2022-11-20T03:30:45;23.43;;;6.00;;
39156;SDS011;24889;42.424;25.604;2022-11-20T03:33:10;11.67;;;5.63;;
39156;SDS011;24889;42.424;25.604;2022-11-20T03:35:36;13.77;;;6.03;;
39156;SDS011;24889;42.424;25.604;2022-11-20T03:38:01;11.73;;;5.20;;
39156;SDS011;24889;42.424;25.604;2022-11-20T03:40:26;15.00;;;5.93;;
39156;SDS011;24889;42.424;25.604;2022-11-20T03:42:51;11.70;;;5.33;;
39156;SDS011;24889;42.424;25.604;2022-11-20T03:45:17;18.33;;;5.93;;
39156;SDS011;24889;42.424;25.604;2022-11-20T03:47:43;22.33;;;6.07;;
39156;SDS011;24889;42.424;25.604;2022-11-20T03:50:09;17.40;;;5.95;;
39156;SDS011;24889;42.424;25.604;2022-11-20T03:52:34;29.55;;;11.80;;
39156;SDS011;24889;42.424;25.604;2022-11-20T03:54:59;46.43;;;22.53;;
39156;SDS011;24889;42.424;25.604;2022-11-20T03:57:25;51.13;;;30.63;;
39156;SDS011;24889;42.424;25.604;2022-11-20T03:59:50;32.00;;;14.07;;
39156;SDS011;24889;42.424;25.604;2022-11-20T04:02:15;19.67;;;8.97;;
39156;SDS011;24889;42.424;25.604;2022-11-20T04:04:41;23.17;;;9.93;;
39156;SDS011;24889;42.424;25.604;2022-11-20T04:07:06;25.13;;;8.87;;
39156;SDS011;24889;42.424;25.604;2022-11-20T04:09:31;17.70;;;7.53;;
39156;SDS011;24889;42.424;25.604;2022-11-20T04:11:56;17.97;;;6.80;;
39156;SDS011;24889;42.424;25.604;2022-11-20T04:14:22;13.17;;;6.07;;
39156;SDS011;24889;42.424;25.604;2022-11-20T04:16:47;19.07;;;6.00;;
39156;SDS011;24889;42.424;25.604;2022-11-20T04:19:13;12.30;;;6.53;;
39156;SDS011;24889;42.424;25.604;2022-11-20T04:21:39;17.70;;;7.03;;
39156;SDS011;24889;42.424;25.604;2022-11-20T04:24:05;20.30;;;6.53;;
39156;SDS011;24889;42.424;25.604;2022-11-20T04:26:31;21.67;;;8.23;;
39156;SDS011;24889;42.424;25.604;2022-11-20T04:28:56;20.00;;;7.45;;
39156;SDS011;24889;42.424;25.604;2022-11-20T04:31:23;20.52;;;8.20;;
39156;SDS011;24889;42.424;25.604;2022-11-20T04:33:48;17.88;;;8.13;;
39156;SDS011;24889;42.424;25.604;2022-11-20T04:36:15;19.20;;;8.32;;
39156;SDS011;24889;42.424;25.604;2022-11-20T04:38:41;19.27;;;7.03;;
39156;SDS011;24889;42.424;25.604;2022-11-20T04:41:07;15.60;;;6.17;;
39156;SDS011;24889;42.424;25.604;2022-11-20T04:48:23;14.43;;;7.67;;
39156;SDS011;24889;42.424;25.604;2022-11-20T04:50:49;16.52;;;5.45;;
39156;SDS011;24889;42.424;25.604;2022-11-20T04:53:14;18.53;;;6.57;;
39156;SDS011;24889;42.424;25.604;2022-11-20T04:55:39;15.33;;;6.00;;
39156;SDS011;24889;42.424;25.604;2022-11-20T04:58:05;20.87;;;5.43;;
39156;SDS011;24889;42.424;25.604;2022-11-20T05:00:30;18.33;;;9.70;;
39156;SDS011;24889;42.424;25.604;2022-11-20T05:02:55;22.80;;;12.10;;
39156;SDS011;24889;42.424;25.604;2022-11-20T05:05:21;19.03;;;9.17;;
39156;SDS011;24889;42.424;25.604;2022-11-20T05:07:46;14.80;;;6.53;;
39156;SDS011;24889;42.424;25.604;2022-11-20T05:10:11;16.67;;;4.63;;
39156;SDS011;24889;42.424;25.604;2022-11-20T05:12:36;16.73;;;4.90;;
39156;SDS011;24889;42.424;25.604;2022-11-20T05:15:02;15.77;;;5.20;;
39156;SDS011;24889;42.424;25.604;2022-11-20T05:17:27;14.23;;;4.90;;
39156;SDS011;24889;42.424;25.604;2022-11-20T05:19:53;11.03;;;4.23;;
39156;SDS011;24889;42.424;25.604;2022-11-20T05:22:18;10.87;;;3.00;;
39156;SDS011;24889;42.424;25.604;2022-11-20T05:24:43;11.57;;;5.13;;
39156;SDS011;24889;42.424;25.604;2022-11-20T05:27:08;10.07;;;3.70;;
39156;SDS011;24889;42.424;25.604;2022-11-20T05:29:34;16.70;;;5.07;;
39156;SDS011;24889;42.424;25.604;2022-11-20T05:31:59;13.07;;;3.33;;
39156;SDS011;24889;42.424;25.604;2022-11-20T05:34:24;8.73;;;3.07;;
39156;SDS011;24889;42.424;25.604;2022-11-20T05:36:49;11.90;;;3.50;;
39156;SDS011;24889;42.424;25.604;2022-11-20T05:39:15;14.33;;;3.83;;
39156;SDS011;24889;42.424;25.604;2022-11-20T05:41:40;16.07;;;3.87;;
39156;SDS011;24889;42.424;25.604;2022-11-20T05:44:05;20.53;;;4.23;;
39156;SDS011;24889;42.424;25.604;2022-11-20T05:46:31;10.03;;;3.60;;
39156;SDS011;24889;42.424;25.604;2022-11-20T05:48:57;11.67;;;3.03;;
39156;SDS011;24889;42.424;25.604;2022-11-20T05:51:22;13.38;;;4.15;;
39156;SDS011;24889;42.424;25.604;2022-11-20T05:53:48;13.63;;;3.97;;
39156;SDS011;24889;42.424;25.604;2022-11-20T05:56:14;15.10;;;4.27;;
39156;SDS011;24889;42.424;25.604;2022-11-20T05:58:40;10.18;;;4.38;;
39156;SDS011;24889;42.424;25.604;2022-11-20T06:01:13;16.27;;;4.77;;
39156;SDS011;24889;42.424;25.604;2022-11-20T06:03:39;12.57;;;3.80;;
39156;SDS011;24889;42.424;25.604;2022-11-20T06:06:05;14.93;;;5.20;;
39156;SDS011;24889;42.424;25.604;2022-11-20T06:08:30;19.30;;;4.57;;
39156;SDS011;24889;42.424;25.604;2022-11-20T06:10:56;12.73;;;3.85;;
39156;SDS011;24889;42.424;25.604;2022-11-20T06:13:21;14.17;;;4.27;;
39156;SDS011;24889;42.424;25.604;2022-11-20T06:15:50;12.90;;;3.97;;
39156;SDS011;24889;42.424;25.604;2022-11-20T06:18:15;15.55;;;4.57;;
39156;SDS011;24889;42.424;25.604;2022-11-20T06:20:41;18.03;;;4.73;;
39156;SDS011;24889;42.424;25.604;2022-11-20T06:23:06;17.10;;;5.37;;
39156;SDS011;24889;42.424;25.604;2022-11-20T06:25:31;14.03;;;5.27;;
39156;SDS011;24889;42.424;25.604;2022-11-20T06:27:56;39.73;;;19.97;;
39156;SDS011;24889;42.424;25.604;2022-11-20T06:30:22;17.57;;;5.77;;
39156;SDS011;24889;42.424;25.604;2022-11-20T06:32:47;21.33;;;9.00;;
39156;SDS011;24889;42.424;25.604;2022-11-20T06:35:12;14.73;;;6.23;;
39156;SDS011;24889;42.424;25.604;2022-11-20T06:37:37;20.87;;;7.13;;
39156;SDS011;24889;42.424;25.604;2022-11-20T06:40:03;22.50;;;7.50;;
39156;SDS011;24889;42.424;25.604;2022-11-20T06:42:28;17.05;;;6.32;;
39156;SDS011;24889;42.424;25.604;2022-11-20T06:44:54;20.83;;;6.87;;
39156;SDS011;24889;42.424;25.604;2022-11-20T06:47:19;15.60;;;6.00;;
39156;SDS011;24889;42.424;25.604;2022-11-20T06:49:44;12.90;;;6.27;;
39156;SDS011;24889;42.424;25.604;2022-11-20T06:52:10;19.10;;;5.90;;
39156;SDS011;24889;42.424;25.604;2022-11-20T06:54:35;17.20;;;6.23;;
39156;SDS011;24889;42.424;25.604;2022-11-20T06:57:00;26.20;;;7.87;;
39156;SDS011;24889;42.424;25.604;2022-11-20T06:59:25;22.13;;;8.33;;
39156;SDS011;24889;42.424;25.604;2022-11-20T07:01:51;22.03;;;7.67;;
39156;SDS011;24889;42.424;25.604;2022-11-20T07:04:19;22.90;;;8.57;;
39156;SDS011;24889;42.424;25.604;2022-11-20T07:06:44;25.43;;;7.63;;
39156;SDS011;24889;42.424;25.604;2022-11-20T07:09:10;18.13;;;7.87;;
39156;SDS011;24889;42.424;25.604;2022-11-20T07:11:35;24.27;;;8.00;;
39156;SDS011;24889;42.424;25.604;2022-11-20T07:14:00;15.27;;;7.20;;
39156;SDS011;24889;42.424;25.604;2022-11-20T07:16:25;13.53;;;6.03;;
39156;SDS011;24889;42.424;25.604;2022-11-20T07:18:51;15.77;;;6.67;;
39156;SDS011;24889;42.424;25.604;2022-11-20T07:21:18;16.75;;;6.82;;
39156;SDS011;24889;42.424;25.604;2022-11-20T07:23:43;17.03;;;7.43;;
39156;SDS011;24889;42.424;25.604;2022-11-20T07:26:09;18.33;;;8.37;;
39156;SDS011;24889;42.424;25.604;2022-11-20T07:28:35;17.08;;;7.35;;
39156;SDS011;24889;42.424;25.604;2022-11-20T07:31:00;20.58;;;6.63;;
39156;SDS011;24889;42.424;25.604;2022-11-20T07:33:26;14.30;;;7.00;;
39156;SDS011;24889;42.424;25.604;2022-11-20T07:35:51;23.27;;;7.90;;
39156;SDS011;24889;42.424;25.604;2022-11-20T07:38:16;17.90;;;7.03;;
39156;SDS011;24889;42.424;25.604;2022-11-20T07:40:42;17.47;;;7.33;;
39156;SDS011;24889;42.424;25.604;2022-11-20T07:43:07;17.27;;;7.97;;
39156;SDS011;24889;42.424;25.604;2022-11-20T07:45:32;19.47;;;6.07;;
39156;SDS011;24889;42.424;25.604;2022-11-20T07:47:57;14.77;;;6.10;;
39156;SDS011;24889;42.424;25.604;2022-11-20T07:50:23;16.23;;;6.03;;
39156;SDS011;24889;42.424;25.604;2022-11-20T07:52:48;15.53;;;5.53;;
39156;SDS011;24889;42.424;25.604;2022-11-20T07:55:13;12.43;;;5.80;;
39156;SDS011;24889;42.424;25.604;2022-11-20T07:57:39;16.52;;;5.82;;
39156;SDS011;24889;42.424;25.604;2022-11-20T08:00:05;14.70;;;5.72;;
39156;SDS011;24889;42.424;25.604;2022-11-20T08:02:32;22.38;;;6.40;;
39156;SDS011;24889;42.424;25.604;2022-11-20T08:04:57;16.33;;;6.30;;
39156;SDS011;24889;42.424;25.604;2022-11-20T08:07:22;12.70;;;5.70;;
39156;SDS011;24889;42.424;25.604;2022-11-20T08:09:47;18.80;;;6.63;;
39156;SDS011;24889;42.424;25.604;2022-11-20T08:12:19;15.00;;;5.87;;
39156;SDS011;24889;42.424;25.604;2022-11-20T08:15:04;16.08;;;5.97;;
39156;SDS011;24889;42.424;25.604;2022-11-20T08:17:30;20.35;;;5.63;;
39156;SDS011;24889;42.424;25.604;2022-11-20T08:19:55;15.25;;;5.85;;
39156;SDS011;24889;42.424;25.604;2022-11-20T08:22:20;16.67;;;5.93;;
39156;SDS011;24889;42.424;25.604;2022-11-20T08:24:48;15.57;;;4.63;;
39156;SDS011;24889;42.424;25.604;2022-11-20T08:27:14;16.10;;;5.43;;
39156;SDS011;24889;42.424;25.604;2022-11-20T08:29:39;10.90;;;4.97;;
39156;SDS011;24889;42.424;25.604;2022-11-20T08:32:05;15.43;;;4.77;;
39156;SDS011;24889;42.424;25.604;2022-11-20T08:34:30;12.10;;;4.53;;
39156;SDS011;24889;42.424;25.604;2022-11-20T08:36:55;13.23;;;5.00;;
39156;SDS011;24889;42.424;25.604;2022-11-20T08:39:20;16.70;;;4.70;;
39156;SDS011;24889;42.424;25.604;2022-11-20T08:41:46;18.60;;;4.27;;
39156;SDS011;24889;42.424;25.604;2022-11-20T08:44:11;17.17;;;6.57;;
39156;SDS011;24889;42.424;25.604;2022-11-20T08:46:37;20.70;;;5.70;;
39156;SDS011;24889;42.424;25.604;2022-11-20T08:49:07;17.80;;;5.40;;
39156;SDS011;24889;42.424;25.604;2022-11-20T08:51:32;18.20;;;4.47;;
39156;SDS011;24889;42.424;25.604;2022-11-20T08:53:58;15.67;;;5.00;;
39156;SDS011;24889;42.424;25.604;2022-11-20T08:56:23;17.13;;;5.83;;
39156;SDS011;24889;42.424;25.604;2022-11-20T08:58:49;18.00;;;4.37;;
39156;SDS011;24889;42.424;25.604;2022-11-20T09:03:40;34.20;;;7.97;;
39156;SDS011;24889;42.424;25.604;2022-11-20T09:06:06;13.57;;;3.87;;
39156;SDS011;24889;42.424;25.604;2022-11-20T09:08:32;15.75;;;4.38;;
39156;SDS011;24889;42.424;25.604;2022-11-20T09:10:57;10.95;;;3.03;;
39156;SDS011;24889;42.424;25.604;2022-11-20T09:13:23;14.10;;;4.30;;
39156;SDS011;24889;42.424;25.604;2022-11-20T09:15:52;13.13;;;4.95;;
39156;SDS011;24889;42.424;25.604;2022-11-20T09:18:18;16.10;;;3.63;;
39156;SDS011;24889;42.424;25.604;2022-11-20T09:20:43;12.73;;;3.73;;
39156;SDS011;24889;42.424;25.604;2022-11-20T09:23:09;23.40;;;4.82;;
39156;SDS011;24889;42.424;25.604;2022-11-20T09:25:34;15.97;;;4.53;;
39156;SDS011;24889;42.424;25.604;2022-11-20T09:27:59;14.93;;;3.97;;
39156;SDS011;24889;42.424;25.604;2022-11-20T09:30:25;19.37;;;4.73;;
39156;SDS011;24889;42.424;25.604;2022-11-20T09:32:50;13.95;;;4.07;;
39156;SDS011;24889;42.424;25.604;2022-11-20T09:35:16;14.50;;;3.67;;
39156;SDS011;24889;42.424;25.604;2022-11-20T09:37:42;12.65;;;4.50;;
39156;SDS011;24889;42.424;25.604;2022-11-20T09:40:13;14.20;;;5.33;;
39156;SDS011;24889;42.424;25.604;2022-11-20T09:42:56;13.77;;;4.57;;
39156;SDS011;24889;42.424;25.604;2022-11-20T09:55:29;16.37;;;4.43;;
39156;SDS011;24889;42.424;25.604;2022-11-20T09:57:55;15.68;;;4.63;;
39156;SDS011;24889;42.424;25.604;2022-11-20T10:00:22;19.58;;;4.95;;
39156;SDS011;24889;42.424;25.604;2022-11-20T10:05:25;20.13;;;4.78;;
39156;SDS011;24889;42.424;25.604;2022-11-20T10:08:01;20.30;;;4.68;;
39156;SDS011;24889;42.424;25.604;2022-11-20T10:10:29;11.45;;;4.15;;
39156;SDS011;24889;42.424;25.604;2022-11-20T10:13:03;18.48;;;4.25;;
39156;SDS011;24889;42.424;25.604;2022-11-20T10:18:38;19.15;;;4.68;;
39156;SDS011;24889;42.424;25.604;2022-11-20T10:23:56;21.35;;;4.47;;
39156;SDS011;24889;42.424;25.604;2022-11-20T10:31:42;28.33;;;5.43;;
39156;SDS011;24889;42.424;25.604;2022-11-20T10:34:18;18.65;;;4.82;;
39156;SDS011;24889;42.424;25.604;2022-11-20T10:36:46;22.63;;;5.75;;
39156;SDS011;24889;42.424;25.604;2022-11-20T10:39:16;12.88;;;5.20;;
39156;SDS011;24889;42.424;25.604;2022-11-20T10:41:43;23.38;;;5.55;;
39156;SDS011;24889;42.424;25.604;2022-11-20T10:44:14;36.30;;;6.28;;
39156;SDS011;24889;42.424;25.604;2022-11-20T10:47:00;15.60;;;5.10;;
39156;SDS011;24889;42.424;25.604;2022-11-20T10:49:25;21.10;;;5.07;;
39156;SDS011;24889;42.424;25.604;2022-11-20T10:51:55;17.83;;;5.33;;
39156;SDS011;24889;42.424;25.604;2022-11-20T10:57:44;21.67;;;5.35;;
39156;SDS011;24889;42.424;25.604;2022-11-20T11:00:12;15.25;;;4.60;;
39156;SDS011;24889;42.424;25.604;2022-11-20T11:02:43;21.70;;;5.68;;
39156;SDS011;24889;42.424;25.604;2022-11-20T11:07:38;20.35;;;5.55;;
39156;SDS011;24889;42.424;25.604;2022-11-20T11:10:12;26.45;;;5.32;;
39156;SDS011;24889;42.424;25.604;2022-11-20T11:12:42;27.52;;;6.40;;
39156;SDS011;24889;42.424;25.604;2022-11-20T11:15:11;31.20;;;5.78;;
39156;SDS011;24889;42.424;25.604;2022-11-20T11:17:37;23.55;;;5.53;;
39156;SDS011;24889;42.424;25.604;2022-11-20T11:22:43;20.93;;;4.33;;
39156;SDS011;24889;42.424;25.604;2022-11-20T11:25:17;39.10;;;7.00;;
39156;SDS011;24889;42.424;25.604;2022-11-20T11:27:47;27.35;;;5.47;;
39156;SDS011;24889;42.424;25.604;2022-11-20T11:30:13;35.65;;;7.03;;
39156;SDS011;24889;42.424;25.604;2022-11-20T11:35:05;23.50;;;4.57;;
39156;SDS011;24889;42.424;25.604;2022-11-20T11:37:35;28.25;;;5.95;;
39156;SDS011;24889;42.424;25.604;2022-11-20T11:40:01;25.67;;;5.07;;
39156;SDS011;24889;42.424;25.604;2022-11-20T11:42:27;23.67;;;4.82;;
39156;SDS011;24889;42.424;25.604;2022-11-20T11:44:53;29.63;;;4.93;;
39156;SDS011;24889;42.424;25.604;2022-11-20T11:47:32;24.95;;;5.18;;
39156;SDS011;24889;42.424;25.604;2022-11-20T11:55:07;24.88;;;5.82;;
39156;SDS011;24889;42.424;25.604;2022-11-20T12:00:16;24.88;;;4.95;;
39156;SDS011;24889;42.424;25.604;2022-11-20T12:07:43;19.25;;;4.22;;
39156;SDS011;24889;42.424;25.604;2022-11-20T12:10:23;17.55;;;4.47;;
39156;SDS011;24889;42.424;25.604;2022-11-20T12:13:04;24.08;;;6.53;;
39156;SDS011;24889;42.424;25.604;2022-11-20T12:15:34;29.88;;;4.93;;
39156;SDS011;24889;42.424;25.604;2022-11-20T12:18:00;19.30;;;5.27;;
39156;SDS011;24889;42.424;25.604;2022-11-20T12:20:31;31.60;;;6.03;;
39156;SDS011;24889;42.424;25.604;2022-11-20T12:25:35;32.88;;;7.05;;
39156;SDS011;24889;42.424;25.604;2022-11-20T12:28:12;28.90;;;4.57;;
39156;SDS011;24889;42.424;25.604;2022-11-20T12:31:05;35.00;;;5.88;;
39156;SDS011;24889;42.424;25.604;2022-11-20T12:33:40;30.42;;;5.70;;
39156;SDS011;24889;42.424;25.604;2022-11-20T12:36:09;28.02;;;5.43;;
39156;SDS011;24889;42.424;25.604;2022-11-20T12:47:22;34.47;;;6.95;;
39156;SDS011;24889;42.424;25.604;2022-11-20T12:52:44;28.40;;;7.10;;
39156;SDS011;24889;42.424;25.604;2022-11-20T12:57:57;30.08;;;5.47;;
39156;SDS011;24889;42.424;25.604;2022-11-20T13:00:23;25.08;;;5.70;;
39156;SDS011;24889;42.424;25.604;2022-11-20T13:08:08;25.23;;;5.97;;
39156;SDS011;24889;42.424;25.604;2022-11-20T13:10:43;28.60;;;5.97;;
39156;SDS011;24889;42.424;25.604;2022-11-20T13:18:03;25.50;;;5.97;;
39156;SDS011;24889;42.424;25.604;2022-11-20T13:20:30;30.85;;;6.20;;
39156;SDS011;24889;42.424;25.604;2022-11-20T13:22:56;35.67;;;6.78;;
39156;SDS011;24889;42.424;25.604;2022-11-20T13:25:37;34.70;;;5.78;;
39156;SDS011;24889;42.424;25.604;2022-11-20T13:28:04;32.33;;;6.18;;
39156;SDS011;24889;42.424;25.604;2022-11-20T13:30:30;24.52;;;5.30;;
39156;SDS011;24889;42.424;25.604;2022-11-20T13:33:00;30.52;;;5.40;;
39156;SDS011;24889;42.424;25.604;2022-11-20T13:38:01;32.70;;;6.63;;
39156;SDS011;24889;42.424;25.604;2022-11-20T13:40:27;29.42;;;5.30;;
39156;SDS011;24889;42.424;25.604;2022-11-20T13:42:56;23.43;;;6.07;;
39156;SDS011;24889;42.424;25.604;2022-11-20T13:45:27;43.10;;;7.55;;
39156;SDS011;24889;42.424;25.604;2022-11-20T13:47:54;32.35;;;7.00;;
39156;SDS011;24889;42.424;25.604;2022-11-20T13:50:21;34.72;;;6.10;;
39156;SDS011;24889;42.424;25.604;2022-11-20T13:52:55;24.80;;;5.93;;
39156;SDS011;24889;42.424;25.604;2022-11-20T13:55:37;35.72;;;7.47;;
39156;SDS011;24889;42.424;25.604;2022-11-20T13:58:16;37.13;;;7.07;;
39156;SDS011;24889;42.424;25.604;2022-11-20T14:00:48;24.10;;;5.60;;
39156;SDS011;24889;42.424;25.604;2022-11-20T14:03:24;33.60;;;6.65;;
39156;SDS011;24889;42.424;25.604;2022-11-20T14:08:20;31.83;;;6.63;;
39156;SDS011;24889;42.424;25.604;2022-11-20T14:10:48;32.20;;;6.88;;
39156;SDS011;24889;42.424;25.604;2022-11-20T14:13:19;31.60;;;7.13;;
39156;SDS011;24889;42.424;25.604;2022-11-20T14:15:45;38.40;;;8.65;;
39156;SDS011;24889;42.424;25.604;2022-11-20T14:18:14;34.17;;;6.83;;
39156;SDS011;24889;42.424;25.604;2022-11-20T14:20:40;29.83;;;5.88;;
39156;SDS011;24889;42.424;25.604;2022-11-20T14:23:07;37.33;;;7.10;;
39156;SDS011;24889;42.424;25.604;2022-11-20T14:25:34;26.70;;;5.80;;
39156;SDS011;24889;42.424;25.604;2022-11-20T14:28:00;36.93;;;7.03;;
39156;SDS011;24889;42.424;25.604;2022-11-20T14:32:51;31.57;;;6.57;;
39156;SDS011;24889;42.424;25.604;2022-11-20T14:35:25;30.63;;;6.15;;
39156;SDS011;24889;42.424;25.604;2022-11-20T14:37:51;28.95;;;6.63;;
39156;SDS011;24889;42.424;25.604;2022-11-20T14:40:27;34.58;;;6.38;;
39156;SDS011;24889;42.424;25.604;2022-11-20T14:42:53;37.53;;;7.00;;
39156;SDS011;24889;42.424;25.604;2022-11-20T14:45:18;34.85;;;6.63;;
39156;SDS011;24889;42.424;25.604;2022-11-20T14:47:44;36.70;;;7.97;;
39156;SDS011;24889;42.424;25.604;2022-11-20T14:50:14;30.10;;;6.95;;
39156;SDS011;24889;42.424;25.604;2022-11-20T14:52:49;31.75;;;6.78;;
39156;SDS011;24889;42.424;25.604;2022-11-20T14:55:14;33.20;;;6.53;;
39156;SDS011;24889;42.424;25.604;2022-11-20T14:57:54;29.15;;;7.25;;
39156;SDS011;24889;42.424;25.604;2022-11-20T15:00:20;40.17;;;8.45;;
39156;SDS011;24889;42.424;25.604;2022-11-20T15:07:40;40.90;;;8.93;;
39156;SDS011;24889;42.424;25.604;2022-11-20T15:10:12;32.45;;;7.07;;
39156;SDS011;24889;42.424;25.604;2022-11-20T15:12:46;29.60;;;7.55;;
39156;SDS011;24889;42.424;25.604;2022-11-20T15:15:11;45.75;;;9.07;;
39156;SDS011;24889;42.424;25.604;2022-11-20T15:17:37;46.40;;;7.75;;
39156;SDS011;24889;42.424;25.604;2022-11-20T15:20:05;33.65;;;8.00;;
39156;SDS011;24889;42.424;25.604;2022-11-20T15:22:35;35.97;;;7.20;;
39156;SDS011;24889;42.424;25.604;2022-11-20T15:25:00;40.17;;;7.57;;
39156;SDS011;24889;42.424;25.604;2022-11-20T15:27:25;44.50;;;7.30;;
39156;SDS011;24889;42.424;25.604;2022-11-20T15:29:51;32.83;;;8.50;;
39156;SDS011;24889;42.424;25.604;2022-11-20T15:32:16;34.07;;;7.80;;
39156;SDS011;24889;42.424;25.604;2022-11-20T15:34:41;39.73;;;7.87;;
39156;SDS011;24889;42.424;25.604;2022-11-20T15:37:06;37.03;;;8.40;;
39156;SDS011;24889;42.424;25.604;2022-11-20T15:39:32;39.10;;;8.70;;
39156;SDS011;24889;42.424;25.604;2022-11-20T15:41:57;41.17;;;8.83;;
39156;SDS011;24889;42.424;25.604;2022-11-20T15:44:22;42.83;;;9.97;;
39156;SDS011;24889;42.424;25.604;2022-11-20T15:46:48;32.97;;;7.77;;
39156;SDS011;24889;42.424;25.604;2022-11-20T15:49:14;32.23;;;8.67;;
39156;SDS011;24889;42.424;25.604;2022-11-20T15:51:40;42.00;;;8.98;;
39156;SDS011;24889;42.424;25.604;2022-11-20T15:54:10;39.67;;;8.73;;
39156;SDS011;24889;42.424;25.604;2022-11-20T15:56:36;37.20;;;10.48;;
39156;SDS011;24889;42.424;25.604;2022-11-20T15:59:02;36.03;;;10.40;;
39156;SDS011;24889;42.424;25.604;2022-11-20T16:01:27;44.77;;;9.20;;
39156;SDS011;24889;42.424;25.604;2022-11-20T16:03:53;39.57;;;10.37;;